createdAt,value
2018-03-28T00:00:18.561Z,996.42
2018-03-28T00:01:18.573Z,996.41
2018-03-28T00:02:18.638Z,996.37
2018-03-28T00:03:18.609Z,996.34
2018-03-28T00:04:18.629Z,996.35
2018-03-28T00:05:18.632Z,996.33
2018-03-28T00:06:18.647Z,996.29
2018-03-28T00:07:18.713Z,996.28
2018-03-28T00:08:18.676Z,996.31
2018-03-28T00:09:18.689Z,996.29
2018-03-28T00:10:18.704Z,996.24
2018-03-28T00:11:18.718Z,996.21
2018-03-28T00:12:18.782Z,996.18
2018-03-28T00:13:18.747Z,996.2
2018-03-28T00:14:18.766Z,996.24
2018-03-28T00:15:18.780Z,996.18
2018-03-28T00:16:18.790Z,996.19
2018-03-28T00:17:18.856Z,996.19
2018-03-28T00:18:18.819Z,996.17
2018-03-28T00:19:18.834Z,996.16
2018-03-28T00:20:18.850Z,996.15
2018-03-28T00:21:18.864Z,996.14
2018-03-28T00:22:18.877Z,996.12
2018-03-28T00:23:18.896Z,996.16
2018-03-28T00:24:18.908Z,996.12
2018-03-28T00:25:18.922Z,996.14
2018-03-28T00:26:18.935Z,996.12
2018-03-28T00:27:18.950Z,996.1
2018-03-28T00:28:18.963Z,996.08
2018-03-28T00:29:18.984Z,996.08
2018-03-28T00:30:18.993Z,996.04
2018-03-28T00:31:19.006Z,996.04
2018-03-28T00:32:19.021Z,996
2018-03-28T00:33:19.035Z,996.04
2018-03-28T00:34:19.051Z,995.98
2018-03-28T00:35:19.067Z,996
2018-03-28T00:36:19.078Z,995.98
2018-03-28T00:37:19.094Z,995.92
2018-03-28T00:38:19.107Z,995.97
2018-03-28T00:39:19.121Z,995.95
2018-03-28T00:40:19.135Z,995.94
2018-03-28T00:41:19.154Z,995.93
2018-03-28T00:42:19.184Z,995.92
2018-03-28T00:43:19.228Z,995.87
2018-03-28T00:44:19.193Z,995.85
2018-03-28T00:45:19.207Z,995.89
2018-03-28T00:46:19.224Z,995.88
2018-03-28T00:47:19.235Z,995.88
2018-03-28T00:48:19.299Z,995.83
2018-03-28T00:49:19.263Z,995.85
2018-03-28T00:50:19.278Z,995.83
2018-03-28T00:51:19.294Z,995.84
2018-03-28T00:52:19.307Z,995.84
2018-03-28T00:53:19.370Z,995.82
2018-03-28T00:54:19.335Z,995.72
2018-03-28T00:55:19.349Z,995.75
2018-03-28T00:56:19.410Z,995.71
2018-03-28T00:57:19.378Z,995.67
2018-03-28T00:58:19.393Z,995.67
2018-03-28T00:59:19.406Z,995.68
2018-03-28T01:00:19.421Z,995.63
2018-03-28T01:01:19.443Z,995.62
2018-03-28T01:02:19.465Z,995.59
2018-03-28T01:03:19.463Z,995.56
2018-03-28T01:04:19.476Z,995.57
2018-03-28T01:05:19.491Z,995.52
2018-03-28T01:06:19.506Z,995.48
2018-03-28T01:07:19.523Z,995.53
2018-03-28T01:08:19.533Z,995.53
2018-03-28T01:09:19.549Z,995.51
2018-03-28T01:10:19.563Z,995.48
2018-03-28T01:11:19.575Z,995.47
2018-03-28T01:12:19.590Z,995.43
2018-03-28T01:13:19.605Z,995.46
2018-03-28T01:14:19.617Z,995.45
2018-03-28T01:15:19.633Z,995.43
2018-03-28T01:16:19.647Z,995.44
2018-03-28T01:17:19.665Z,995.49
2018-03-28T01:18:19.674Z,995.46
2018-03-28T01:19:19.691Z,995.52
2018-03-28T01:20:19.705Z,995.5
2018-03-28T01:21:19.717Z,995.56
2018-03-28T01:22:19.730Z,995.53
2018-03-28T01:23:19.745Z,995.5
2018-03-28T01:24:19.760Z,995.52
2018-03-28T01:25:19.773Z,995.5
2018-03-28T01:26:19.787Z,995.5
2018-03-28T01:27:19.802Z,995.44
2018-03-28T01:28:19.816Z,995.46
2018-03-28T01:29:19.833Z,995.44
2018-03-28T01:30:19.844Z,995.45
2018-03-28T01:31:19.861Z,995.42
2018-03-28T01:32:19.880Z,995.41
2018-03-28T01:33:19.885Z,995.37
2018-03-28T01:34:19.901Z,995.34
2018-03-28T01:35:19.914Z,995.34
2018-03-28T01:36:19.927Z,995.26
2018-03-28T01:37:19.942Z,995.31
2018-03-28T01:38:19.959Z,995.28
2018-03-28T01:39:19.970Z,995.25
2018-03-28T01:40:19.984Z,995.23
2018-03-28T01:41:20.000Z,995.2
2018-03-28T01:42:20.012Z,995.18
2018-03-28T01:43:20.026Z,995.12
2018-03-28T01:44:20.039Z,995.14
2018-03-28T01:45:20.054Z,995.12
2018-03-28T01:46:20.067Z,995.1
2018-03-28T01:47:20.081Z,995.11
2018-03-28T01:48:20.096Z,995.12
2018-03-28T01:49:20.111Z,995.1
2018-03-28T01:50:20.123Z,995.05
2018-03-28T01:51:20.144Z,995.05
2018-03-28T01:52:20.151Z,995
2018-03-28T01:53:20.169Z,994.95
2018-03-28T01:54:20.229Z,994.96
2018-03-28T01:55:20.195Z,994.95
2018-03-28T01:56:20.209Z,994.92
2018-03-28T01:57:20.224Z,994.86
2018-03-28T01:58:20.236Z,994.88
2018-03-28T01:59:20.250Z,994.92
2018-03-28T02:00:20.267Z,994.87
2018-03-28T02:01:20.278Z,994.9
2018-03-28T02:02:20.291Z,994.89
2018-03-28T02:03:20.308Z,994.88
2018-03-28T02:04:20.319Z,994.84
2018-03-28T02:05:20.333Z,994.84
2018-03-28T02:06:20.351Z,994.85
2018-03-28T02:07:20.362Z,994.8
2018-03-28T02:08:20.375Z,994.79
2018-03-28T02:09:20.391Z,994.8
2018-03-28T02:10:20.404Z,994.78
2018-03-28T02:11:20.419Z,994.79
2018-03-28T02:12:20.433Z,994.79
2018-03-28T02:13:20.444Z,994.79
2018-03-28T02:14:20.457Z,994.78
2018-03-28T02:15:20.473Z,994.78
2018-03-28T02:16:20.485Z,994.76
2018-03-28T02:17:20.499Z,994.75
2018-03-28T02:18:20.523Z,994.75
2018-03-28T02:19:20.529Z,994.72
2018-03-28T02:20:20.540Z,994.73
2018-03-28T02:21:20.567Z,994.72
2018-03-28T02:22:20.568Z,994.69
2018-03-28T02:23:20.584Z,994.69
2018-03-28T02:24:20.597Z,994.69
2018-03-28T02:25:20.611Z,994.72
2018-03-28T02:26:20.648Z,994.68
2018-03-28T02:27:20.637Z,994.68
2018-03-28T02:28:20.652Z,994.71
2018-03-28T02:29:20.666Z,994.68
2018-03-28T02:30:20.681Z,994.62
2018-03-28T02:31:20.693Z,994.57
2018-03-28T02:32:20.707Z,994.54
2018-03-28T02:33:20.724Z,994.53
2018-03-28T02:34:20.737Z,994.45
2018-03-28T02:35:20.748Z,994.44
2018-03-28T02:36:20.763Z,994.32
2018-03-28T02:37:20.781Z,994.24
2018-03-28T02:38:20.793Z,994.2
2018-03-28T02:39:20.804Z,994.15
2018-03-28T02:40:20.817Z,994.08
2018-03-28T02:41:20.841Z,994.04
2018-03-28T02:42:20.844Z,994.05
2018-03-28T02:43:20.862Z,993.97
2018-03-28T02:44:20.875Z,993.93
2018-03-28T02:45:20.887Z,993.92
2018-03-28T02:46:20.991Z,993.93
2018-03-28T02:47:20.986Z,993.99
2018-03-28T02:48:20.992Z,994
2018-03-28T02:49:21.034Z,994.02
2018-03-28T02:50:21.038Z,994.06
2018-03-28T02:51:21.007Z,994.04
2018-03-28T02:52:21.028Z,994.06
2018-03-28T02:53:21.041Z,994
2018-03-28T02:54:21.058Z,994.03
2018-03-28T02:55:21.091Z,994.04
2018-03-28T02:56:21.114Z,994.05
2018-03-28T02:57:21.095Z,994.06
2018-03-28T02:58:21.111Z,994.05
2018-03-28T02:59:21.125Z,994.11
2018-03-28T03:00:21.132Z,994.12
2018-03-28T03:01:21.162Z,994.17
2018-03-28T03:02:21.189Z,994.17
2018-03-28T03:03:21.228Z,994.18
2018-03-28T03:04:21.188Z,994.21
2018-03-28T03:05:21.308Z,994.28
2018-03-28T03:06:21.225Z,994.22
2018-03-28T03:07:21.232Z,994.24
2018-03-28T03:08:21.249Z,994.22
2018-03-28T03:09:21.260Z,994.24
2018-03-28T03:10:21.384Z,994.24
2018-03-28T03:11:21.330Z,994.22
2018-03-28T03:12:21.257Z,994.23
2018-03-28T03:13:21.323Z,994.23
2018-03-28T03:14:21.285Z,994.24
2018-03-28T03:15:21.298Z,994.19
2018-03-28T03:16:21.316Z,994.2
2018-03-28T03:17:21.326Z,994.14
2018-03-28T03:18:21.340Z,994.13
2018-03-28T03:19:21.354Z,994.14
2018-03-28T03:20:21.367Z,994.12
2018-03-28T03:21:21.383Z,994.13
2018-03-28T03:22:21.394Z,994.09
2018-03-28T03:23:21.411Z,994.09
2018-03-28T03:24:21.421Z,994.12
2018-03-28T03:25:21.436Z,994.09
2018-03-28T03:26:21.449Z,994.16
2018-03-28T03:27:21.468Z,994.16
2018-03-28T03:28:21.476Z,994.14
2018-03-28T03:29:21.490Z,994.16
2018-03-28T03:30:21.506Z,994.18
2018-03-28T03:31:21.521Z,994.15
2018-03-28T03:32:21.533Z,994.17
2018-03-28T03:33:21.554Z,994.15
2018-03-28T03:34:21.558Z,994.16
2018-03-28T03:35:21.574Z,994.13
2018-03-28T03:36:21.590Z,994.13
2018-03-28T03:37:21.600Z,994.14
2018-03-28T03:38:21.615Z,994.13
2018-03-28T03:39:21.629Z,994.18
2018-03-28T03:40:21.640Z,994.11
2018-03-28T03:41:21.655Z,994.15
2018-03-28T03:42:21.668Z,994.18
2018-03-28T03:43:21.682Z,994.15
2018-03-28T03:44:21.696Z,994.17
2018-03-28T03:45:21.709Z,994.17
2018-03-28T03:46:21.723Z,994.13
2018-03-28T03:47:21.738Z,994.13
2018-03-28T03:48:21.750Z,994.1
2018-03-28T03:49:21.766Z,994.1
2018-03-28T03:50:21.779Z,994.1
2018-03-28T03:51:21.790Z,994.08
2018-03-28T03:52:21.815Z,994.09
2018-03-28T03:53:21.818Z,994.08
2018-03-28T03:54:21.834Z,994.08
2018-03-28T03:55:21.846Z,994.07
2018-03-28T03:56:21.860Z,994.04
2018-03-28T03:57:21.874Z,994.05
2018-03-28T03:58:21.936Z,994.06
2018-03-28T03:59:21.902Z,994.08
2018-03-28T04:00:21.913Z,994.05
2018-03-28T04:01:21.927Z,994.02
2018-03-28T04:02:21.946Z,994.05
2018-03-28T04:03:21.955Z,993.98
2018-03-28T04:04:21.969Z,993.95
2018-03-28T04:05:21.982Z,994.03
2018-03-28T04:06:21.995Z,994.01
2018-03-28T04:07:22.009Z,994.06
2018-03-28T04:08:22.033Z,994.02
2018-03-28T04:09:22.036Z,994.05
2018-03-28T04:10:22.049Z,994.04
2018-03-28T04:11:22.064Z,994.04
2018-03-28T04:12:22.078Z,994.04
2018-03-28T04:13:22.089Z,994.08
2018-03-28T04:14:22.106Z,994.09
2018-03-28T04:15:22.118Z,994.04
2018-03-28T04:16:22.181Z,994.05
2018-03-28T04:17:22.145Z,994.05
2018-03-28T04:18:22.159Z,994.05
2018-03-28T04:19:22.174Z,994.04
2018-03-28T04:20:22.185Z,994.02
2018-03-28T04:21:22.254Z,993.98
2018-03-28T04:22:22.213Z,994
2018-03-28T04:23:22.228Z,993.96
2018-03-28T04:24:22.239Z,993.93
2018-03-28T04:25:22.258Z,993.91
2018-03-28T04:26:22.269Z,993.89
2018-03-28T04:27:22.282Z,993.88
2018-03-28T04:28:22.295Z,993.89
2018-03-28T04:29:22.307Z,993.92
2018-03-28T04:30:22.321Z,993.94
2018-03-28T04:31:22.386Z,993.97
2018-03-28T04:32:22.348Z,993.88
2018-03-28T04:33:22.363Z,993.9
2018-03-28T04:34:22.376Z,993.91
2018-03-28T04:35:22.389Z,993.89
2018-03-28T04:36:22.402Z,993.88
2018-03-28T04:37:22.416Z,993.89
2018-03-28T04:38:22.430Z,993.87
2018-03-28T04:39:22.444Z,993.87
2018-03-28T04:40:22.457Z,993.84
2018-03-28T04:41:22.472Z,993.84
2018-03-28T04:42:22.485Z,993.79
2018-03-28T04:43:22.497Z,993.78
2018-03-28T04:44:22.516Z,993.78
2018-03-28T04:45:22.526Z,993.78
2018-03-28T04:46:22.538Z,993.75
2018-03-28T04:47:22.552Z,993.73
2018-03-28T04:48:22.566Z,993.78
2018-03-28T04:49:22.579Z,993.77
2018-03-28T04:50:22.592Z,993.75
2018-03-28T04:51:22.606Z,993.76
2018-03-28T04:52:22.620Z,993.78
2018-03-28T04:53:22.633Z,993.79
2018-03-28T04:54:22.646Z,993.79
2018-03-28T04:55:22.660Z,993.75
2018-03-28T04:56:22.674Z,993.73
2018-03-28T04:57:22.687Z,993.71
2018-03-28T04:58:22.702Z,993.72
2018-03-28T04:59:22.714Z,993.71
2018-03-28T05:00:22.733Z,993.69
2018-03-28T05:01:22.742Z,993.67
2018-03-28T05:02:22.756Z,993.67
2018-03-28T05:03:22.769Z,993.68
2018-03-28T05:04:22.786Z,993.64
2018-03-28T05:05:22.805Z,993.67
2018-03-28T05:06:22.813Z,993.66
2018-03-28T05:07:22.826Z,993.61
2018-03-28T05:08:22.842Z,993.6
2018-03-28T05:09:22.858Z,993.61
2018-03-28T05:10:22.865Z,993.66
2018-03-28T05:11:22.878Z,993.62
2018-03-28T05:12:22.891Z,993.61
2018-03-28T05:13:22.904Z,993.66
2018-03-28T05:14:22.919Z,993.66
2018-03-28T05:15:22.934Z,993.65
2018-03-28T05:16:22.944Z,993.61
2018-03-28T05:17:22.972Z,993.65
2018-03-28T05:18:22.973Z,993.64
2018-03-28T05:19:22.985Z,993.61
2018-03-28T05:20:22.998Z,993.66
2018-03-28T05:21:23.013Z,993.62
2018-03-28T05:22:23.030Z,993.64
2018-03-28T05:23:23.040Z,993.64
2018-03-28T05:24:23.055Z,993.59
2018-03-28T05:25:23.067Z,993.57
2018-03-28T05:26:23.083Z,993.59
2018-03-28T05:27:23.094Z,993.63
2018-03-28T05:28:23.108Z,993.58
2018-03-28T05:29:23.121Z,993.59
2018-03-28T05:30:23.134Z,993.6
2018-03-28T05:31:23.148Z,993.6
2018-03-28T05:32:23.206Z,993.58
2018-03-28T05:33:23.176Z,993.57
2018-03-28T05:34:23.188Z,993.51
2018-03-28T05:35:23.203Z,993.52
2018-03-28T05:36:23.216Z,993.47
2018-03-28T05:37:23.230Z,993.55
2018-03-28T05:38:23.250Z,993.47
2018-03-28T05:39:23.257Z,993.48
2018-03-28T05:40:23.270Z,993.49
2018-03-28T05:41:23.285Z,993.51
2018-03-28T05:42:23.297Z,993.5
2018-03-28T05:43:23.315Z,993.51
2018-03-28T05:44:23.324Z,993.47
2018-03-28T05:45:23.336Z,993.46
2018-03-28T05:46:23.352Z,993.44
2018-03-28T05:47:23.364Z,993.44
2018-03-28T05:48:23.379Z,993.45
2018-03-28T05:49:23.392Z,993.45
2018-03-28T05:50:23.410Z,993.49
2018-03-28T05:51:23.419Z,993.47
2018-03-28T05:52:23.434Z,993.5
2018-03-28T05:53:23.445Z,993.47
2018-03-28T05:54:23.459Z,993.48
2018-03-28T05:55:23.473Z,993.45
2018-03-28T05:56:23.488Z,993.43
2018-03-28T05:57:23.501Z,993.42
2018-03-28T05:58:23.515Z,993.44
2018-03-28T05:59:23.529Z,993.43
2018-03-28T06:00:23.541Z,993.43
2018-03-28T06:01:23.554Z,993.41
2018-03-28T06:02:23.569Z,993.44
2018-03-28T06:03:23.580Z,993.44
2018-03-28T06:04:23.596Z,993.4
2018-03-28T06:05:23.609Z,993.41
2018-03-28T06:06:23.622Z,993.36
2018-03-28T06:07:23.640Z,993.35
2018-03-28T06:08:23.654Z,993.36
2018-03-28T06:09:23.662Z,993.37
2018-03-28T06:10:23.675Z,993.3
2018-03-28T06:11:23.689Z,993.33
2018-03-28T06:12:23.705Z,993.34
2018-03-28T06:13:23.757Z,993.31
2018-03-28T06:14:23.730Z,993.33
2018-03-28T06:15:23.744Z,993.31
2018-03-28T06:16:23.758Z,993.32
2018-03-28T06:17:23.771Z,993.32
2018-03-28T06:18:23.806Z,993.28
2018-03-28T06:19:23.799Z,993.28
2018-03-28T06:20:23.812Z,993.27
2018-03-28T06:21:23.825Z,993.31
2018-03-28T06:22:23.844Z,993.28
2018-03-28T06:23:23.853Z,993.28
2018-03-28T06:24:23.866Z,993.28
2018-03-28T06:25:23.880Z,993.24
2018-03-28T06:26:23.894Z,993.25
2018-03-28T06:27:23.908Z,993.22
2018-03-28T06:28:23.922Z,993.24
2018-03-28T06:29:23.935Z,993.19
2018-03-28T06:30:23.947Z,993.2
2018-03-28T06:31:23.963Z,993.12
2018-03-28T06:32:23.976Z,993.12
2018-03-28T06:33:23.989Z,993.14
2018-03-28T06:34:24.003Z,993.13
2018-03-28T06:35:24.018Z,993.1
2018-03-28T06:36:24.030Z,993.13
2018-03-28T06:37:24.045Z,993.12
2018-03-28T06:38:24.065Z,993.13
2018-03-28T06:39:24.072Z,993.14
2018-03-28T06:40:24.087Z,993.15
2018-03-28T06:41:24.100Z,993.09
2018-03-28T06:42:24.114Z,993.03
2018-03-28T06:43:24.128Z,993.06
2018-03-28T06:44:24.141Z,993.07
2018-03-28T06:45:24.156Z,993.04
2018-03-28T06:46:24.168Z,993.02
2018-03-28T06:47:24.184Z,993.01
2018-03-28T06:48:24.196Z,993.05
2018-03-28T06:49:24.210Z,993.03
2018-03-28T06:50:24.228Z,993.02
2018-03-28T06:51:24.238Z,993.03
2018-03-28T06:52:24.254Z,993.03
2018-03-28T06:53:24.265Z,993.05
2018-03-28T06:54:24.279Z,993.05
2018-03-28T06:55:24.293Z,993.02
2018-03-28T06:56:24.312Z,993.04
2018-03-28T06:57:24.321Z,993.08
2018-03-28T06:58:24.334Z,993.02
2018-03-28T06:59:24.349Z,993
2018-03-28T07:00:24.362Z,993.03
2018-03-28T07:01:24.375Z,993.05
2018-03-28T07:02:24.438Z,993.06
2018-03-28T07:03:24.403Z,993.02
2018-03-28T07:04:24.418Z,993
2018-03-28T07:05:24.430Z,992.98
2018-03-28T07:06:24.446Z,992.96
2018-03-28T07:07:24.465Z,992.95
2018-03-28T07:08:24.472Z,992.95
2018-03-28T07:09:24.488Z,992.97
2018-03-28T07:10:24.501Z,992.94
2018-03-28T07:11:24.515Z,992.97
2018-03-28T07:12:24.526Z,992.95
2018-03-28T07:13:24.541Z,992.94
2018-03-28T07:14:24.558Z,992.93
2018-03-28T07:15:24.569Z,992.92
2018-03-28T07:16:24.584Z,992.86
2018-03-28T07:17:24.597Z,992.85
2018-03-28T07:18:24.612Z,992.83
2018-03-28T07:19:24.626Z,992.78
2018-03-28T07:20:24.640Z,992.8
2018-03-28T07:21:24.653Z,992.76
2018-03-28T07:22:24.667Z,992.74
2018-03-28T07:23:24.680Z,992.67
2018-03-28T07:24:24.694Z,992.7
2018-03-28T07:25:24.709Z,992.7
2018-03-28T07:26:24.722Z,992.71
2018-03-28T07:27:24.735Z,992.75
2018-03-28T07:28:24.750Z,992.74
2018-03-28T07:29:24.764Z,992.75
2018-03-28T07:30:24.781Z,992.78
2018-03-28T07:31:24.796Z,992.77
2018-03-28T07:32:24.807Z,992.77
2018-03-28T07:33:24.820Z,992.72
2018-03-28T07:34:24.834Z,992.71
2018-03-28T07:35:24.849Z,992.68
2018-03-28T07:36:24.863Z,992.67
2018-03-28T07:37:24.877Z,992.7
2018-03-28T07:38:24.892Z,992.74
2018-03-28T07:39:24.904Z,992.76
2018-03-28T07:40:24.921Z,992.77
2018-03-28T07:41:24.933Z,992.75
2018-03-28T07:42:24.953Z,992.74
2018-03-28T07:43:24.962Z,992.73
2018-03-28T07:44:24.983Z,992.72
2018-03-28T07:45:24.989Z,992.71
2018-03-28T07:46:25.005Z,992.68
2018-03-28T07:47:25.022Z,992.73
2018-03-28T07:48:25.033Z,992.7
2018-03-28T07:49:25.046Z,992.72
2018-03-28T07:50:25.061Z,992.73
2018-03-28T07:51:25.076Z,992.71
2018-03-28T07:52:25.091Z,992.72
2018-03-28T07:53:25.105Z,992.76
2018-03-28T07:54:25.120Z,992.7
2018-03-28T07:55:25.134Z,992.73
2018-03-28T07:56:25.147Z,992.67
2018-03-28T07:57:25.161Z,992.63
2018-03-28T07:58:25.175Z,992.63
2018-03-28T07:59:25.189Z,992.66
2018-03-28T08:00:25.405Z,992.63
2018-03-28T08:01:25.218Z,992.61
2018-03-28T08:02:25.237Z,992.63
2018-03-28T08:03:25.298Z,992.62
2018-03-28T08:04:25.269Z,992.62
2018-03-28T08:05:25.276Z,992.62
2018-03-28T08:06:25.296Z,992.61
2018-03-28T08:07:25.305Z,992.6
2018-03-28T08:08:25.320Z,992.64
2018-03-28T08:09:25.360Z,992.64
2018-03-28T08:10:25.349Z,992.62
2018-03-28T08:11:25.362Z,992.65
2018-03-28T08:12:25.377Z,992.67
2018-03-28T08:13:25.442Z,992.66
2018-03-28T08:14:25.406Z,992.66
2018-03-28T08:15:25.424Z,992.72
2018-03-28T08:16:25.436Z,992.68
2018-03-28T08:17:25.451Z,992.64
2018-03-28T08:18:25.516Z,992.68
2018-03-28T08:19:25.484Z,992.65
2018-03-28T08:20:25.495Z,992.61
2018-03-28T08:21:25.510Z,992.57
2018-03-28T08:22:25.523Z,992.62
2018-03-28T08:23:25.589Z,992.65
2018-03-28T08:24:25.595Z,992.66
2018-03-28T08:25:25.568Z,992.67
2018-03-28T08:26:25.587Z,992.66
2018-03-28T08:27:25.600Z,992.68
2018-03-28T08:28:25.662Z,992.67
2018-03-28T08:29:25.627Z,992.66
2018-03-28T08:30:25.640Z,992.66
2018-03-28T08:31:25.655Z,992.69
2018-03-28T08:32:25.671Z,992.67
2018-03-28T08:33:25.686Z,992.7
2018-03-28T08:34:25.698Z,992.63
2018-03-28T08:35:25.713Z,992.67
2018-03-28T08:36:25.727Z,992.67
2018-03-28T08:37:25.744Z,992.68
2018-03-28T08:38:25.759Z,992.66
2018-03-28T08:39:25.773Z,992.64
2018-03-28T08:40:25.788Z,992.63
2018-03-28T08:41:25.801Z,992.64
2018-03-28T08:42:25.818Z,992.63
2018-03-28T08:43:25.832Z,992.65
2018-03-28T08:44:25.847Z,992.59
2018-03-28T08:45:25.860Z,992.57
2018-03-28T08:46:25.875Z,992.57
2018-03-28T08:47:25.888Z,992.55
2018-03-28T08:48:25.904Z,992.53
2018-03-28T08:49:25.918Z,992.54
2018-03-28T08:50:25.934Z,992.55
2018-03-28T08:51:25.948Z,992.54
2018-03-28T08:52:25.965Z,992.52
2018-03-28T08:53:25.986Z,992.47
2018-03-28T08:54:26.003Z,992.46
2018-03-28T08:55:26.006Z,992.49
2018-03-28T08:56:26.020Z,992.47
2018-03-28T08:57:26.036Z,992.45
2018-03-28T08:58:26.050Z,992.46
2018-03-28T08:59:26.069Z,992.41
2018-03-28T09:00:26.079Z,992.44
2018-03-28T09:01:26.098Z,992.4
2018-03-28T09:02:26.109Z,992.39
2018-03-28T09:03:26.125Z,992.36
2018-03-28T09:04:26.138Z,992.38
2018-03-28T09:05:26.154Z,992.37
2018-03-28T09:06:26.168Z,992.4
2018-03-28T09:07:26.185Z,992.39
2018-03-28T09:08:26.197Z,992.38
2018-03-28T09:09:26.217Z,992.41
2018-03-28T09:10:26.227Z,992.41
2018-03-28T09:11:26.243Z,992.39
2018-03-28T09:12:26.258Z,992.44
2018-03-28T09:13:26.272Z,992.43
2018-03-28T09:14:26.288Z,992.44
2018-03-28T09:15:26.301Z,992.4
2018-03-28T09:16:26.317Z,992.4
2018-03-28T09:17:26.332Z,992.4
2018-03-28T09:18:26.346Z,992.38
2018-03-28T09:19:26.364Z,992.39
2018-03-28T09:20:26.375Z,992.39
2018-03-28T09:21:26.390Z,992.37
2018-03-28T09:22:26.404Z,992.36
2018-03-28T09:23:26.421Z,992.32
2018-03-28T09:24:26.435Z,992.32
2018-03-28T09:25:26.455Z,992.32
2018-03-28T09:26:26.465Z,992.29
2018-03-28T09:27:26.480Z,992.28
2018-03-28T09:28:26.499Z,992.3
2018-03-28T09:29:26.510Z,992.27
2018-03-28T09:30:26.525Z,992.27
2018-03-28T09:31:26.539Z,992.27
2018-03-28T09:32:26.555Z,992.24
2018-03-28T09:33:26.568Z,992.19
2018-03-28T09:34:26.588Z,992.22
2018-03-28T09:35:26.600Z,992.17
2018-03-28T09:36:26.613Z,992.19
2018-03-28T09:37:26.628Z,992.24
2018-03-28T09:38:26.644Z,992.2
2018-03-28T09:39:26.659Z,992.19
2018-03-28T09:40:26.674Z,992.23
2018-03-28T09:41:26.690Z,992.25
2018-03-28T09:42:26.704Z,992.21
2018-03-28T09:43:26.719Z,992.21
2018-03-28T09:44:26.734Z,992.17
2018-03-28T09:45:26.749Z,992.18
2018-03-28T09:46:26.765Z,992.12
2018-03-28T09:47:26.779Z,992.15
2018-03-28T09:48:26.795Z,992.09
2018-03-28T09:49:26.809Z,992.13
2018-03-28T09:50:26.825Z,992.11
2018-03-28T09:51:26.843Z,992.16
2018-03-28T09:52:26.855Z,992.13
2018-03-28T09:53:26.869Z,992.13
2018-03-28T09:54:26.885Z,992.13
2018-03-28T09:55:26.900Z,992.07
2018-03-28T09:56:26.916Z,992.05
2018-03-28T09:57:26.930Z,992.04
2018-03-28T09:58:26.945Z,992.01
2018-03-28T09:59:26.964Z,992.03
2018-03-28T10:00:26.985Z,992
2018-03-28T10:01:26.991Z,992.01
2018-03-28T10:02:27.005Z,992.01
2018-03-28T10:03:27.020Z,992.02
2018-03-28T10:04:27.036Z,992.02
2018-03-28T10:05:27.050Z,992.03
2018-03-28T10:06:27.065Z,992.03
2018-03-28T10:07:27.080Z,992
2018-03-28T10:08:27.094Z,992.03
2018-03-28T10:09:27.110Z,992.05
2018-03-28T10:10:27.132Z,992.03
2018-03-28T10:11:27.140Z,992.05
2018-03-28T10:12:27.155Z,992.09
2018-03-28T10:13:27.171Z,992.06
2018-03-28T10:14:27.187Z,992.09
2018-03-28T10:15:27.199Z,992.03
2018-03-28T10:16:27.215Z,992.04
2018-03-28T10:17:27.231Z,992.06
2018-03-28T10:18:27.247Z,992.05
2018-03-28T10:19:27.266Z,992.06
2018-03-28T10:20:27.276Z,992.04
2018-03-28T10:21:27.292Z,992.03
2018-03-28T10:22:27.308Z,992.05
2018-03-28T10:23:27.321Z,992.01
2018-03-28T10:24:27.336Z,992.02
2018-03-28T10:25:27.352Z,992.02
2018-03-28T10:26:27.366Z,992.03
2018-03-28T10:27:27.385Z,992
2018-03-28T10:28:27.399Z,991.97
2018-03-28T10:29:27.413Z,992.02
2018-03-28T10:30:27.428Z,991.98
2018-03-28T10:31:27.443Z,991.97
2018-03-28T10:32:27.457Z,991.98
2018-03-28T10:33:27.472Z,991.96
2018-03-28T10:34:27.537Z,991.95
2018-03-28T10:35:27.503Z,991.93
2018-03-28T10:36:27.519Z,991.92
2018-03-28T10:37:27.532Z,991.91
2018-03-28T10:38:27.552Z,991.94
2018-03-28T10:39:27.615Z,991.91
2018-03-28T10:40:27.608Z,991.86
2018-03-28T10:41:27.598Z,991.83
2018-03-28T10:42:27.610Z,991.84
2018-03-28T10:43:27.625Z,991.88
2018-03-28T10:44:27.690Z,991.85
2018-03-28T10:45:27.654Z,991.89
2018-03-28T10:46:27.669Z,991.9
2018-03-28T10:47:27.685Z,991.86
2018-03-28T10:48:27.699Z,991.89
2018-03-28T10:49:27.764Z,991.91
2018-03-28T10:50:27.730Z,991.89
2018-03-28T10:51:27.747Z,991.91
2018-03-28T10:52:27.761Z,991.91
2018-03-28T10:53:27.775Z,991.92
2018-03-28T10:54:27.840Z,991.92
2018-03-28T10:55:27.806Z,991.89
2018-03-28T10:56:27.820Z,991.89
2018-03-28T10:57:27.835Z,991.87
2018-03-28T10:58:27.851Z,991.92
2018-03-28T10:59:27.868Z,991.9
2018-03-28T11:00:27.881Z,991.88
2018-03-28T11:01:27.898Z,991.87
2018-03-28T11:02:27.912Z,991.91
2018-03-28T11:03:27.926Z,991.9
2018-03-28T11:04:27.990Z,991.91
2018-03-28T11:05:27.957Z,991.86
2018-03-28T11:06:27.974Z,991.89
2018-03-28T11:07:27.992Z,991.87
2018-03-28T11:08:28.014Z,991.88
2018-03-28T11:09:28.020Z,991.78
2018-03-28T11:10:28.033Z,991.83
2018-03-28T11:11:28.052Z,991.81
2018-03-28T11:12:28.064Z,991.83
2018-03-28T11:13:28.079Z,991.83
2018-03-28T11:14:28.094Z,991.83
2018-03-28T11:15:28.110Z,991.88
2018-03-28T11:16:28.125Z,991.82
2018-03-28T11:17:28.141Z,991.84
2018-03-28T11:18:28.155Z,991.82
2018-03-28T11:19:28.171Z,991.84
2018-03-28T11:20:28.196Z,991.78
2018-03-28T11:21:28.207Z,991.8
2018-03-28T11:22:28.217Z,991.76
2018-03-28T11:23:28.238Z,991.77
2018-03-28T11:24:28.249Z,991.76
2018-03-28T11:25:28.265Z,991.81
2018-03-28T11:26:28.281Z,991.78
2018-03-28T11:27:28.295Z,991.8
2018-03-28T11:28:28.310Z,991.75
2018-03-28T11:29:28.331Z,991.77
2018-03-28T11:30:28.341Z,991.75
2018-03-28T11:31:28.357Z,991.74
2018-03-28T11:32:28.371Z,991.71
2018-03-28T11:33:28.387Z,991.66
2018-03-28T11:34:28.404Z,991.68
2018-03-28T11:35:28.417Z,991.7
2018-03-28T11:36:28.435Z,991.67
2018-03-28T11:37:28.450Z,991.67
2018-03-28T11:38:28.464Z,991.7
2018-03-28T11:39:28.479Z,991.67
2018-03-28T11:40:28.495Z,991.67
2018-03-28T11:41:28.510Z,991.66
2018-03-28T11:42:28.525Z,991.67
2018-03-28T11:43:28.544Z,991.63
2018-03-28T11:44:28.557Z,991.68
2018-03-28T11:45:28.571Z,991.64
2018-03-28T11:46:28.587Z,991.63
2018-03-28T11:47:28.601Z,991.68
2018-03-28T11:48:28.617Z,991.7
2018-03-28T11:49:28.634Z,991.63
2018-03-28T11:50:28.648Z,991.69
2018-03-28T11:51:28.663Z,991.67
2018-03-28T11:52:28.679Z,991.66
2018-03-28T11:53:28.695Z,991.66
2018-03-28T11:54:28.709Z,991.65
2018-03-28T11:55:28.725Z,991.64
2018-03-28T11:56:28.739Z,991.68
2018-03-28T11:57:28.755Z,991.63
2018-03-28T11:58:28.776Z,991.65
2018-03-28T11:59:28.786Z,991.66
2018-03-28T12:00:28.802Z,991.62
2018-03-28T12:01:28.817Z,991.64
2018-03-28T12:02:28.832Z,991.62
2018-03-28T12:03:28.848Z,991.61
2018-03-28T12:04:28.864Z,991.6
2018-03-28T12:05:28.878Z,991.58
2018-03-28T12:06:28.894Z,991.54
2018-03-28T12:07:28.911Z,991.55
2018-03-28T12:08:28.925Z,991.61
2018-03-28T12:09:28.941Z,991.56
2018-03-28T12:10:28.956Z,991.58
2018-03-28T12:11:28.972Z,991.58
2018-03-28T12:12:28.987Z,991.6
2018-03-28T12:13:29.003Z,991.58
2018-03-28T12:14:29.018Z,991.57
2018-03-28T12:15:29.034Z,991.61
2018-03-28T12:16:29.048Z,991.56
2018-03-28T12:17:29.069Z,991.6
2018-03-28T12:18:29.144Z,991.56
2018-03-28T12:19:29.099Z,991.56
2018-03-28T12:20:29.160Z,991.54
2018-03-28T12:21:29.125Z,991.53
2018-03-28T12:22:29.147Z,991.52
2018-03-28T12:23:29.170Z,991.48
2018-03-28T12:24:29.173Z,991.48
2018-03-28T12:25:29.237Z,991.49
2018-03-28T12:26:29.204Z,991.5
2018-03-28T12:27:29.218Z,991.5
2018-03-28T12:28:29.235Z,991.46
2018-03-28T12:29:29.249Z,991.49
2018-03-28T12:30:29.325Z,991.51
2018-03-28T12:31:29.284Z,991.47